Time;durP1;ratioP1;P1;durP2;ratioP2;P2;SDS_P1;SDS_P2;PMS_P1;PMS_P2;Temp;Humidity;BMP_temperature;BMP_pressure;BME280_temperature;BME280_humidity;BME280_pressure;Samples;Min_cycle;Max_cycle;Signal;HPM_P1;HPM_P2
2021/04/30 00:00:00;;;;;;;4.18;1.80;;;;;;;19.18;49.07;100885.94;2096268;28;20704;-62
2021/04/30 00:01:01;;;;;;;2.97;1.73;;;;;;;19.21;49.12;100882.00;2096160;28;20475;-62
2021/04/30 00:02:01;;;;;;;4.32;1.90;;;;;;;19.20;48.58;100883.88;2096086;28;20075;-61
2021/04/30 00:03:02;;;;;;;4.57;1.85;;;;;;;19.22;49.07;100887.25;2095522;28;20061;-62
2021/04/30 00:04:03;;;;;;;7.25;1.90;;;;;;;19.22;48.86;100879.13;2095275;28;20029;-62
2021/04/30 00:05:58;;;;;;;4.50;1.65;;;;;;;19.22;49.05;100884.53;2104511;27;20624;-60
2021/04/30 00:06:59;;;;;;;1.92;1.58;;;;;;;19.21;48.99;100888.28;2104651;28;20394;-61
2021/04/30 00:08:00;;;;;;;4.40;1.88;;;;;;;19.19;49.26;100879.50;2104509;28;20470;-61
2021/04/30 00:09:01;;;;;;;4.93;2.08;;;;;;;19.19;49.10;100879.50;2104684;28;20409;-62
2021/04/30 00:10:04;;;;;;;4.45;1.80;;;;;;;19.20;48.40;100878.47;2104532;28;20043;-62
2021/04/30 00:11:07;;;;;;;3.33;1.55;;;;;;;19.23;48.86;100877.25;2104714;28;20156;-61
2021/04/30 00:12:07;;;;;;;3.10;1.67;;;;;;;19.21;48.89;100877.44;2104485;28;20772;-61
2021/04/30 00:13:09;;;;;;;3.05;1.77;;;;;;;19.21;49.20;100877.44;2104607;28;20214;-62
2021/04/30 00:14:10;;;;;;;2.28;1.60;;;;;;;19.22;48.98;100875.56;2103383;28;20020;-62
2021/04/30 00:15:11;;;;;;;3.63;1.60;;;;;;;19.22;49.03;100875.56;2104643;28;20030;-62
2021/04/30 00:16:12;;;;;;;3.05;1.60;;;;;;;19.22;49.08;100879.13;2104431;28;20036;-62
2021/04/30 00:17:12;;;;;;;2.47;1.58;;;;;;;19.23;49.19;100882.66;2104552;28;20443;-62
2021/04/30 00:18:13;;;;;;;2.53;1.70;;;;;;;19.23;48.90;100878.09;2103930;28;20028;-62
2021/04/30 00:19:13;;;;;;;3.63;1.70;;;;;;;19.24;48.83;100885.19;2103810;28;20066;-62
2021/04/30 00:20:30;;;;;;;3.47;1.50;;;;;;;19.23;49.08;100878.09;2110730;27;20514;-62
2021/04/30 00:21:31;;;;;;;2.22;1.52;;;;;;;19.20;49.30;100872.19;2104689;28;20081;-62
2021/04/30 00:22:59;;;;;;;3.55;1.70;;;;;;;19.17;48.89;100871.53;2090277;28;20909;-62
2021/04/30 00:24:00;;;;;;;2.92;1.70;;;;;;;19.18;49.41;100873.22;2079872;28;20392;-62
2021/04/30 00:25:35;;;;;;;3.53;1.80;;;;;;;18.65;47.03;100873.59;2092647;28;20571;-61
2021/04/30 00:26:35;;;;;;;4.50;1.65;;;;;;;18.76;46.99;100868.56;2088019;28;20029;-61
2021/04/30 00:30:14;;;;;;;2.63;1.40;;;;;;;18.86;46.88;100870.94;2109366;27;20549;-62
2021/04/30 00:31:20;;;;;;;5.30;1.80;;;;;;;18.84;47.15;100868.44;2096328;28;20471;-62
2021/04/30 00:32:20;;;;;;;4.05;1.90;;;;;;;18.83;46.72;100866.78;2096479;28;20150;-62
2021/04/30 00:33:43;;;;;;;3.28;1.80;;;;;;;18.81;46.68;100862.56;2109871;27;20541;-61
2021/04/30 00:34:44;;;;;;;2.97;1.80;;;;;;;18.80;46.72;100858.16;2104506;28;20501;-61
2021/04/30 00:36:11;;;;;;;3.90;1.63;;;;;;;18.77;46.88;100853.97;2105668;27;20555;-62
2021/04/30 00:37:11;;;;;;;2.47;2.00;;;;;;;18.77;46.53;100862.09;2085128;28;20483;-63
2021/04/30 00:38:13;;;;;;;2.72;1.67;;;;;;;18.78;46.41;100857.53;2091445;28;20494;-63
2021/04/30 00:39:13;;;;;;;2.47;1.88;;;;;;;18.79;46.54;100856.50;2085106;28;20045;-62
2021/04/30 00:40:14;;;;;;;6.90;1.90;;;;;;;18.77;46.49;100853.13;2095264;28;20483;-61
2021/04/30 00:41:14;;;;;;;2.45;1.70;;;;;;;18.79;46.43;100854.63;2094282;28;20047;-62
2021/04/30 00:42:16;;;;;;;2.58;1.80;;;;;;;18.80;46.43;100853.59;2096335;28;20031;-62
2021/04/30 00:43:17;;;;;;;2.10;1.70;;;;;;;18.77;46.32;100851.25;2095420;28;20086;-62
2021/04/30 00:44:19;;;;;;;4.47;1.70;;;;;;;18.79;46.35;100859.19;2095673;28;20029;-62
2021/04/30 00:45:22;;;;;;;2.42;1.80;;;;;;;18.80;46.44;100855.47;2095423;28;20082;-62
2021/04/30 00:46:22;;;;;;;2.38;1.60;;;;;;;18.79;46.25;100857.34;2095636;28;20478;-62
2021/04/30 00:47:34;;;;;;;3.45;1.65;;;;;;;18.78;46.09;100852.09;2096094;28;20056;-62
2021/04/30 00:48:35;;;;;;;2.28;1.70;;;;;;;18.79;46.41;100859.19;2095883;28;20043;-62
2021/04/30 00:49:35;;;;;;;2.30;1.70;;;;;;;18.79;45.97;100861.91;2095953;28;20438;-62
2021/04/30 00:50:36;;;;;;;1.80;1.58;;;;;;;18.78;46.31;100863.78;2103948;28;20498;-62
2021/04/30 00:51:36;;;;;;;6.65;2.20;;;;;;;18.78;46.24;100863.78;2103903;28;20074;-62
2021/04/30 00:52:38;;;;;;;2.90;1.90;;;;;;;18.79;46.17;100860.03;2096317;28;20049;-62
2021/04/30 00:53:38;;;;;;;2.42;1.80;;;;;;;18.79;46.24;100861.91;2103878;28;20055;-62
2021/04/30 00:54:39;;;;;;;3.38;1.90;;;;;;;18.78;46.20;100858.38;2103917;28;20036;-62
2021/04/30 00:55:39;;;;;;;2.70;1.73;;;;;;;18.77;46.06;100858.53;2096117;28;20529;-62
2021/04/30 00:56:40;;;;;;;2.22;1.80;;;;;;;18.77;46.04;100866.69;2095941;28;20086;-62
2021/04/30 00:57:55;;;;;;;2.22;1.70;;;;;;;18.75;46.14;100860.59;2096144;28;20036;-62
2021/04/30 00:58:56;;;;;;;3.30;1.70;;;;;;;18.75;46.13;100864.16;2096158;28;20083;-62
2021/04/30 00:59:58;;;;;;;2.70;1.73;;;;;;;18.73;46.37;100858.09;2095837;28;20245;-62
2021/04/30 01:00:59;;;;;;;3.63;1.95;;;;;;;18.73;46.12;100859.94;2096227;28;20021;-62
2021/04/30 01:02:00;;;;;;;3.63;1.80;;;;;;;18.75;45.58;100857.91;2096178;28;20127;-62
2021/04/30 01:03:00;;;;;;;3.45;1.67;;;;;;;18.76;46.21;100856.88;2096174;28;20020;-62
2021/04/30 01:04:02;;;;;;;2.67;1.70;;;;;;;18.75;46.18;100857.91;2095683;28;20459;-62
2021/04/30 01:05:04;;;;;;;3.38;1.90;;;;;;;18.76;45.92;100860.41;2096082;28;20024;-63
2021/04/30 01:06:05;;;;;;;2.13;1.70;;;;;;;18.72;46.18;100858.28;2096260;28;20025;-62
2021/04/30 01:07:05;;;;;;;4.30;2.15;;;;;;;18.12;46.58;100854.72;2103636;28;20470;-61
2021/04/30 01:08:06;;;;;;;7.63;2.20;;;;;;;18.33;46.89;100856.69;2103545;28;20420;-62
2021/04/30 01:09:07;;;;;;;3.75;1.73;;;;;;;18.57;46.65;100857.41;2095500;28;20020;-62
2021/04/30 01:10:08;;;;;;;4.75;1.70;;;;;;;18.84;46.28;100854.03;2095974;28;20389;-63
2021/04/30 01:11:08;;;;;;;;;;;;;;;19.09;46.26;100859.94;2096750;28;20120;-66
2021/04/30 01:12:09;;;;;;;;;;;;;;;19.13;45.46;100853.13;2096299;28;19962;-66
2021/04/30 01:13:12;;;;;;;;;;;;;;;19.15;46.03;100859.19;2096114;28;21529;-66
2021/04/30 01:14:12;;;;;;;;;;;;;;;19.14;45.31;100860.22;2096373;28;19913;-66
2021/04/30 01:15:14;;;;;;;;;;;;;;;19.11;46.33;100853.31;2095975;28;19920;-65
2021/04/30 01:16:14;;;;;;;;;;;;;;;19.09;46.05;100857.25;2096208;28;20012;-65
2021/04/30 01:17:15;;;;;;;;;;;;;;;19.05;46.37;100853.25;2096086;28;20385;-66
2021/04/30 01:18:15;;;;;;;;;;;;;;;19.04;46.65;100855.13;2095953;28;19962;-66
2021/04/30 01:19:19;;;;;;;;;;;;;;;19.02;46.88;100864.50;2095948;28;20335;-66
2021/04/30 01:20:20;;;;;;;;;;;;;;;19.02;46.83;100864.50;2096340;28;20003;-65
2021/04/30 01:21:22;;;;;;;;;;;;;;;18.99;46.89;100864.88;2096337;28;20294;-66
2021/04/30 01:22:37;;;;;;;;;;;;;;;18.98;46.81;100863.19;2096586;28;20008;-66
2021/04/30 01:23:46;;;;;;;;;;;;;;;18.98;46.88;100865.91;2090015;28;19928;-65
2021/04/30 01:24:46;;;;;;;;;;;;;;;18.94;47.13;100865.44;2096535;28;20290;-66
2021/04/30 01:25:47;;;;;;;;;;;;;;;18.94;47.23;100861.88;2096055;28;20042;-65
2021/04/30 01:26:47;;;;;;;;;;;;;;;18.93;47.46;100863.75;2096472;28;19917;-65
2021/04/30 01:27:48;;;;;;;;;;;;;;;18.92;47.40;100858.50;2096426;28;19943;-65
2021/04/30 01:28:48;;;;;;;;;;;;;;;18.91;47.49;100870.38;2096468;28;19986;-65
2021/04/30 01:29:49;;;;;;;;;;;;;;;18.91;47.34;100865.81;2096198;28;19923;-65
2021/04/30 01:30:49;;;;;;;;;;;;;;;18.91;47.51;100859.53;2096325;28;19921;-65
2021/04/30 01:31:49;;;;;;;;;;;;;;;18.90;47.46;100863.28;2096117;28;20297;-65
2021/04/30 01:32:50;;;;;;;;;;;;;;;18.90;47.64;100858.69;2096236;28;20354;-65
2021/04/30 01:33:55;;;;;;;;;;;;;;;18.71;45.71;100857.44;2096222;28;20375;-64
2021/04/30 01:34:55;;;;;;;;;;;;;;;18.44;46.40;100867.03;2096065;28;20290;-66
2021/04/30 01:35:55;;;;;;;;;;;;;;;18.46;46.49;100866.84;2095995;28;19916;-65
2021/04/30 01:36:56;;;;;;;;;;;;;;;18.52;46.71;100859.84;2096267;28;19916;-65
2021/04/30 01:37:57;;;;;;;;;;;;;;;18.53;46.81;100854.25;2096205;28;19913;-65
2021/04/30 01:38:57;;;;;;;;;;;;;;;18.56;46.57;100853.03;2096077;28;19916;-65
2021/04/30 01:39:58;;;;;;;;;;;;;;;18.56;46.97;100862.00;2095541;28;19966;-65
2021/04/30 01:40:59;;;;;;;;;;;;;;;18.56;47.24;100856.59;2095301;28;19916;-65
2021/04/30 01:41:59;;;;;;;;;;;;;;;18.56;47.10;100858.44;2104056;28;19916;-65
2021/04/30 01:43:01;;;;;;;;;;;;;;;18.54;47.25;100858.63;2096394;28;19919;-65
2021/04/30 01:44:05;;;;;;;;;;;;;;;18.53;47.35;100856.13;2096303;28;19917;-65
2021/04/30 01:45:05;;;;;;;;;;;;;;;18.52;47.27;100859.84;2096259;28;19920;-65
2021/04/30 01:46:06;;;;;;;;;;;;;;;18.50;47.45;100858.16;2096338;28;19952;-65
2021/04/30 01:47:06;;;;;;;;;;;;;;;18.50;47.45;100868.16;2093329;28;19920;-65
2021/04/30 01:48:09;;;;;;;;;;;;;;;18.49;47.48;100861.06;2090355;28;19917;-64
2021/04/30 01:49:10;;;;;;;;;;;;;;;18.47;47.56;100863.13;2097951;28;19912;-65
2021/04/30 01:50:12;;;;;;;;;;;;;;;18.46;47.68;100865.00;2098225;28;20377;-65
2021/04/30 01:51:12;;;;;;;;;;;;;;;18.45;47.43;100866.00;2090817;28;19920;-65
2021/04/30 01:52:13;;;;;;;;;;;;;;;18.44;47.64;100866.19;2090690;28;19912;-65
2021/04/30 01:53:15;;;;;;;;;;;;;;;18.44;47.58;100863.50;2090803;28;19913;-65
2021/04/30 01:54:15;;;;;;;;;;;;;;;18.43;47.71;100864.50;2090773;28;20339;-65
2021/04/30 01:55:15;;;;;;;;;;;;;;;18.41;47.56;100864.69;2090412;28;19913;-65
2021/04/30 01:56:16;;;;;;;;;;;;;;;18.39;47.62;100861.38;2090640;28;19956;-65
2021/04/30 01:57:16;;;;;;;;;;;;;;;18.39;47.58;100864.06;2090753;28;19940;-65
2021/04/30 01:58:16;;;;;;;;;;;;;;;18.38;47.45;100864.25;2090739;28;19967;-65
2021/04/30 01:59:17;;;;;;;;;;;;;;;18.38;47.59;100867.81;2090684;28;19944;-65
2021/04/30 02:00:21;;;;;;;;;;;;;;;18.37;47.80;100863.41;2090797;28;19940;-65
2021/04/30 02:01:22;;;;;;;;;;;;;;;18.37;47.81;100868.00;2090628;28;19916;-65
2021/04/30 02:02:24;;;;;;;;;;;;;;;18.36;47.99;100871.72;2090697;28;19917;-65
2021/04/30 02:03:25;;;;;;;;;;;;;;;18.36;48.03;100866.31;2090462;28;19917;-65
2021/04/30 02:04:25;;;;;;;;;;;;;;;18.36;47.98;100874.44;2090599;28;19917;-65
2021/04/30 02:05:29;;;;;;;;;;;;;;;18.35;47.80;100872.75;2090678;28;20316;-65
2021/04/30 02:06:29;;;;;;;;;;;;;;;18.33;48.03;100864.81;2090799;28;19920;-65
2021/04/30 02:07:29;;;;;;;;;;;;;;;18.33;48.11;100864.81;2090561;28;20367;-65
2021/04/30 02:08:30;;;;;;;;;;;;;;;18.33;48.04;100870.22;2090747;28;19913;-65
2021/04/30 02:09:30;;;;;;;;;;;;;;;18.31;48.25;100866.03;2090461;28;19920;-65
2021/04/30 02:10:31;;;;;;;;;;;;;;;18.31;47.86;100863.31;2090272;28;19917;-64
2021/04/30 02:11:31;;;;;;;;;;;;;;;18.30;48.20;100869.75;2090532;28;19920;-65
2021/04/30 02:12:32;;;;;;;;;;;;;;;18.30;48.27;100867.06;2090817;28;19943;-65
2021/04/30 02:13:32;;;;;;;;;;;;;;;18.29;48.09;100862.66;2090521;28;20432;-65
2021/04/30 02:14:32;;;;;;;;;;;;;;;18.29;48.07;100868.91;2090708;28;20347;-65
2021/04/30 02:15:37;;;;;;;;;;;;;;;18.28;48.03;100863.69;2090445;28;19921;-65
2021/04/30 02:16:37;;;;;;;;;;;;;;;18.27;47.91;100864.72;2090656;28;19916;-65
2021/04/30 02:17:38;;;;;;;;;;;;;;;18.26;48.06;100863.03;2090112;28;19924;-65
2021/04/30 02:18:38;;;;;;;;;;;;;;;18.26;47.96;100863.03;2090674;28;19971;-65
2021/04/30 02:19:38;;;;;;;;;;;;;;;18.24;48.19;100863.22;2090219;28;20302;-65
2021/04/30 02:20:39;;;;;;;;;;;;;;;18.25;48.14;100864.06;2090636;28;19912;-65
2021/04/30 02:21:39;;;;;;;;;;;;;;;18.24;48.14;100868.63;2090428;28;20379;-65
2021/04/30 02:22:40;;;;;;;;;;;;;;;18.24;48.11;100865.91;2090585;28;19966;-64
2021/04/30 02:23:40;;;;;;;;;;;;;;;18.25;48.29;100872.19;2090495;28;19939;-65
2021/04/30 02:24:40;;;;;;;;;;;;;;;18.24;48.33;100870.50;2090363;28;20385;-65
2021/04/30 02:25:41;;;;;;;;;;;;;;;18.23;48.31;100869.66;2090388;28;19960;-65
2021/04/30 02:26:41;;;;;;;;;;;;;;;18.23;48.27;100869.66;2090613;28;19913;-65
2021/04/30 02:27:42;;;;;;;;;;;;;;;18.22;48.21;100869.84;2090452;28;20366;-65
2021/04/30 02:28:45;;;;;;;;;;;;;;;18.21;48.02;100869.00;2090733;28;20390;-65
2021/04/30 02:29:45;;;;;;;;;;;;;;;18.20;48.01;100867.31;2090352;28;19920;-65
2021/04/30 02:30:46;;;;;;;;;;;;;;;18.20;48.12;100871.88;2090516;28;19956;-64
2021/04/30 02:31:46;;;;;;;;;;;;;;;18.20;48.23;100870.03;2090394;28;19917;-65
2021/04/30 02:32:47;;;;;;;;;;;;;;;18.20;48.29;100869.19;2090206;28;19916;-65
2021/04/30 02:33:48;;;;;;;;;;;;;;;18.20;48.03;100867.31;2090373;28;20413;-65
2021/04/30 02:34:49;;;;;;;;;;;;;;;18.19;48.42;100871.03;2090301;28;19905;-65
2021/04/30 02:35:50;;;;;;;;;;;;;;;18.18;48.45;100868.56;2083600;28;20379;-65
2021/04/30 02:36:50;;;;;;;;;;;;;;;18.17;48.50;100870.41;2090460;28;19917;-65
2021/04/30 02:37:51;;;;;;;;;;;;;;;18.17;48.20;100875.84;2090332;28;19924;-65
2021/04/30 02:38:51;;;;;;;;;;;;;;;18.17;48.08;100865.00;2090414;28;19932;-65
2021/04/30 02:39:51;;;;;;;;;;;;;;;18.18;48.26;100871.25;2089985;28;19924;-65
2021/04/30 02:40:52;;;;;;;;;;;;;;;18.15;48.33;100873.31;2090343;28;19916;-65
2021/04/30 02:41:52;;;;;;;;;;;;;;;18.15;48.42;100873.31;2090320;28;19958;-65
2021/04/30 02:42:54;;;;;;;;;;;;;;;18.17;48.56;100870.41;2090408;28;20236;-65
2021/04/30 02:43:54;;;;;;;;;;;;;;;18.16;48.48;100871.44;2090339;28;19913;-65
2021/04/30 02:44:54;;;;;;;;;;;;;;;18.16;48.41;100876.88;2090342;28;19913;-65
2021/04/30 02:45:56;;;;;;;;;;;;;;;18.15;48.35;100873.31;2090339;28;20302;-64
2021/04/30 02:46:57;;;;;;;;;;;;;;;18.14;48.27;100865.38;2090250;28;19924;-65
2021/04/30 02:47:58;;;;;;;;;;;;;;;18.15;48.45;100867.06;2090359;28;19921;-65
2021/04/30 02:49:02;;;;;;;;;;;;;;;18.13;48.43;100872.66;2090121;28;19943;-65
2021/04/30 02:50:04;;;;;;;;;;;;;;;18.14;48.78;100865.38;2090399;28;19999;-65
2021/04/30 02:51:08;;;;;;;;;;;;;;;18.13;48.58;100872.66;2090251;28;19955;-65
2021/04/30 02:52:09;;;;;;;;;;;;;;;18.12;48.27;100862.84;2090349;28;20263;-65
2021/04/30 02:53:09;;;;;;;;;;;;;;;18.12;48.36;100872.84;2090191;28;19917;-65
2021/04/30 02:54:10;;;;;;;;;;;;;;;18.12;48.20;100867.41;2090343;28;19913;-65
2021/04/30 02:55:10;;;;;;;;;;;;;;;18.12;48.18;100872.84;2089960;28;19916;-65
2021/04/30 02:56:11;;;;;;;;;;;;;;;18.11;48.40;100872.00;2090256;28;19913;-65
2021/04/30 02:57:12;;;;;;;;;;;;;;;18.11;48.36;100868.44;2090212;28;20332;-65
2021/04/30 02:58:13;;;;;;;;;;;;;;;18.10;48.04;100864.06;2090443;28;19917;-65
2021/04/30 02:59:13;;;;;;;;;;;;;;;18.09;48.39;100867.78;2089202;28;20046;-65
2021/04/30 03:00:14;;;;;;;;;;;;;;;18.09;48.50;100870.50;2090388;28;20274;-65
2021/04/30 03:01:14;;;;;;;;;;;;;;;18.09;48.44;100865.91;2090126;28;20419;-65
2021/04/30 03:02:15;;;;;;;;;;;;;;;18.08;48.41;100875.06;2090154;28;19947;-65
2021/04/30 03:03:15;;;;;;;;;;;;;;;18.08;48.46;100866.09;2090211;28;20400;-65
2021/04/30 03:04:15;;;;;;;;;;;;;;;18.07;48.20;100864.41;2090078;28;20397;-65
2021/04/30 03:05:16;;;;;;;;;;;;;;;18.08;48.26;100868.81;2090149;28;20268;-65
2021/04/30 03:06:17;;;;;;;;;;;;;;;18.06;48.08;100871.69;2090290;28;20355;-65
2021/04/30 03:07:17;;;;;;;;;;;;;;;18.06;48.40;100876.28;2090138;28;19921;-65
2021/04/30 03:08:18;;;;;;;;;;;;;;;18.06;48.28;100877.13;2090232;28;20290;-65
2021/04/30 03:09:18;;;;;;;;;;;;;;;18.05;48.21;100872.72;2089718;28;20027;-65
2021/04/30 03:10:18;;;;;;;;;;;;;;;18.05;48.41;100864.59;2090241;28;19930;-65
2021/04/30 03:11:19;;;;;;;;;;;;;;;18.06;48.19;100870.84;2090065;28;20367;-65
2021/04/30 03:12:19;;;;;;;;;;;;;;;18.05;48.54;100872.72;2090258;28;19963;-65
2021/04/30 03:13:20;;;;;;;;;;;;;;;18.03;48.35;100874.78;2090064;28;20417;-65
2021/04/30 03:14:20;;;;;;;;;;;;;;;18.04;48.42;100872.91;2090078;28;20390;-65
2021/04/30 03:15:21;;;;;;;;;;;;;;;18.04;48.35;100870.19;2089959;28;19916;-64
2021/04/30 03:16:21;;;;;;;;;;;;;;;18.03;48.25;100872.06;2090168;28;20264;-65
2021/04/30 03:17:21;;;;;;;;;;;;;;;18.02;48.17;100870.38;2089794;28;19962;-65
2021/04/30 03:18:21;;;;;;;;;;;;;;;18.02;48.56;100875.81;2090085;28;19917;-65
2021/04/30 03:19:22;;;;;;;;;;;;;;;18.02;48.40;100875.81;2089889;28;19916;-65
2021/04/30 03:20:22;;;;;;;;;;;;;;;18.02;48.29;100874.97;2090192;28;19913;-65
2021/04/30 03:21:24;;;;;;;;;;;;;;;18.01;48.40;100874.13;2089977;28;19935;-65
2021/04/30 03:22:24;;;;;;;;;;;;;;;18.02;48.56;100873.09;2090086;28;20011;-65
2021/04/30 03:23:25;;;;;;;;;;;;;;;18.01;48.46;100871.41;2089869;28;19920;-65
2021/04/30 03:24:25;;;;;;;;;;;;;;;18.01;48.47;100874.13;2089772;28;20481;-65
2021/04/30 03:25:25;;;;;;;;;;;;;;;18.00;48.18;100875.13;2090029;28;19916;-65
2021/04/30 03:26:26;;;;;;;;;;;;;;;17.99;48.36;100878.88;2090093;28;20252;-65
2021/04/30 03:27:27;;;;;;;;;;;;;;;18.00;48.16;100868.88;2089923;28;19916;-65
2021/04/30 03:28:28;;;;;;;;;;;;;;;18.00;48.65;100868.88;2090060;28;19921;-65
2021/04/30 03:29:29;;;;;;;;;;;;;;;18.01;48.66;100868.69;2090027;28;19916;-64
2021/04/30 03:30:29;;;;;;;;;;;;;;;18.04;48.48;100875.63;2090010;28;19913;-65
2021/04/30 03:31:29;;;;;;;;;;;;;;;18.02;46.61;100873.09;2089602;28;19974;-65
2021/04/30 03:32:30;;;;;;;;;;;;;;;17.73;46.15;100865.75;2090014;28;20291;-65
2021/04/30 03:33:30;;;;;;;;;;;;;;;17.70;46.85;100871.53;2089980;28;19923;-66
2021/04/30 03:34:31;;;;;;;;;;;;;;;17.76;47.09;100865.38;2089785;28;19917;-65
2021/04/30 03:35:31;;;;;;;;;;;;;;;17.83;47.05;100873.63;2089711;28;19956;-65
2021/04/30 03:36:31;;;;;;;;;;;;;;;17.86;47.21;100869.69;2089854;28;19920;-65
2021/04/30 03:37:32;;;;;;;;;;;;;;;17.89;47.16;100863.91;2089919;28;19921;-64
2021/04/30 03:38:35;;;;;;;;;;;;;;;17.92;47.29;100867.09;2090001;28;19913;-65
2021/04/30 03:39:35;;;;;;;;;;;;;;;17.94;47.53;100864.22;2089831;28;19920;-65
2021/04/30 03:40:35;;;;;;;;;;;;;;;17.96;47.75;100864.88;2089902;28;20462;-65
2021/04/30 03:41:36;;;;;;;;;;;;;;;17.97;47.93;100870.09;2089830;28;19912;-65
2021/04/30 03:42:36;;;;;;;;;;;;;;;17.98;48.11;100862.81;2089891;28;20147;-65
2021/04/30 03:43:36;;;;;;;;;;;;;;;17.97;47.57;100869.28;2089940;28;19917;-65
2021/04/30 03:44:37;;;;;;;;;;;;;;;17.98;47.87;100862.81;2089799;28;20389;-65
2021/04/30 03:45:37;;;;;;;;;;;;;;;17.98;47.85;100863.66;2089911;28;19913;-65
2021/04/30 03:46:37;;;;;;;;;;;;;;;17.99;47.65;100853.66;2089599;28;19921;-65
2021/04/30 03:47:38;;;;;;;;;;;;;;;17.99;47.64;100859.06;2089842;28;19917;-65
2021/04/30 03:48:38;;;;;;;;;;;;;;;17.99;47.55;100862.63;2090020;28;19921;-65
2021/04/30 03:49:39;;;;;;;;;;;;;;;18.01;47.54;100857.03;2089514;28;19991;-65
2021/04/30 03:50:39;;;;;;;;;;;;;;;18.01;47.78;100865.16;2089956;28;20326;-64
2021/04/30 03:51:39;;;;;;;;;;;;;;;18.01;47.86;100862.44;2089700;28;19920;-65
2021/04/30 03:52:40;;;;;;;;;;;;;;;18.01;47.53;100857.88;2089955;28;20345;-65
2021/04/30 03:53:40;;;;;;;;;;;;;;;18.00;47.57;100855.34;2089427;28;19924;-65
2021/04/30 03:54:40;;;;;;;;;;;;;;;17.99;47.77;100859.06;2090002;28;19952;-65
2021/04/30 03:55:41;;;;;;;;;;;;;;;18.00;47.45;100855.34;2089633;28;20381;-64
2021/04/30 03:56:41;;;;;;;;;;;;;;;18.00;47.90;100855.34;2089907;28;19958;-65
2021/04/30 03:57:41;;;;;;;;;;;;;;;18.01;47.79;100857.03;2089734;28;19916;-64
2021/04/30 03:58:42;;;;;;;;;;;;;;;18.00;47.84;100856.19;2089772;28;19920;-64
2021/04/30 03:59:42;;;;;;;;;;;;;;;18.01;47.49;100857.03;2089748;28;19917;-65
2021/04/30 04:00:42;;;;;;;;;;;;;;;18.00;47.43;100853.47;2089842;28;20375;-65
2021/04/30 04:01:43;;;;;;;;;;;;;;;18.01;47.76;100857.03;2089373;28;19921;-65
2021/04/30 04:02:44;;;;;;;;;;;;;;;18.01;47.44;100854.31;2089817;28;19916;-65
2021/04/30 04:03:44;;;;;;;;;;;;;;;18.01;47.81;100855.16;2089653;28;19921;-65
2021/04/30 04:04:45;;;;;;;;;;;;;;;18.01;47.73;100863.28;2089653;28;20371;-65
2021/04/30 04:05:45;;;;;;;;;;;;;;;18.00;47.64;100856.19;2089672;28;19912;-65
2021/04/30 04:06:45;;;;;;;;;;;;;;;18.00;47.62;100855.34;2089854;28;19920;-64
2021/04/30 04:07:46;;;;;;;;;;;;;;;18.00;47.59;100852.63;2083035;28;20683;-65
2021/04/30 04:08:46;;;;;;;;;;;;;;;18.00;47.99;100856.19;2089517;28;19909;-65
2021/04/30 04:09:46;;;;;;;;;;;;;;;18.00;47.78;100855.34;2089796;28;19919;-65
2021/04/30 04:10:47;;;;;;;;;;;;;;;18.00;48.14;100856.19;2097145;28;19940;-65
2021/04/30 04:11:47;;;;;;;;;;;;;;;18.03;47.98;100861.22;2097158;28;19912;-65
2021/04/30 04:12:47;;;;;;;;;;;;;;;18.04;47.95;100857.50;2084087;28;20379;-65
2021/04/30 04:13:48;;;;;;;;;;;;;;;18.03;48.37;100861.22;2089620;28;19912;-65
2021/04/30 04:14:48;;;;;;;;;;;;;;;18.03;48.00;100861.22;2089806;28;19909;-65
2021/04/30 04:15:49;;;;;;;;;;;;;;;18.02;47.76;100864.97;2088973;28;19923;-65
2021/04/30 04:16:50;;;;;;;;;;;;;;;18.02;47.77;100858.69;2089739;28;19999;-64
2021/04/30 04:17:50;;;;;;;;;;;;;;;18.02;47.63;100858.69;2089606;28;20402;-65
2021/04/30 04:18:50;;;;;;;;;;;;;;;18.01;47.68;100865.16;2089696;28;19948;-65
2021/04/30 04:19:51;;;;;;;;;;;;;;;18.01;47.93;100865.16;2089487;28;19920;-65
2021/04/30 04:20:51;;;;;;;;;;;;;;;18.01;47.73;100862.44;2089582;28;20282;-65
2021/04/30 04:21:51;;;;;;;;;;;;;;;18.00;47.69;100866.16;2089580;28;19928;-65
2021/04/30 04:22:52;;;;;;;;;;;;;;;18.01;47.89;100865.16;2089727;28;19912;-65
2021/04/30 04:23:52;;;;;;;;;;;;;;;18.00;47.92;100866.16;2089380;28;20315;-65
2021/04/30 04:24:52;;;;;;;;;;;;;;;18.00;47.61;100867.00;2089749;28;20290;-65
2021/04/30 04:25:53;;;;;;;;;;;;;;;18.00;47.71;100864.31;2089595;28;20367;-65
2021/04/30 04:26:53;;;;;;;;;;;;;;;18.00;47.83;100872.44;2089676;28;19952;-66
2021/04/30 04:27:53;;;;;;;;;;;;;;;18.00;47.76;100863.47;2089601;28;19921;-65
2021/04/30 04:28:54;;;;;;;;;;;;;;;18.00;47.96;100868.88;2089636;28;19913;-65
2021/04/30 04:29:54;;;;;;;;;;;;;;;17.99;47.92;100868.03;2089571;28;20429;-65
2021/04/30 04:30:56;;;;;;;;;;;;;;;18.00;47.77;100866.16;2089336;28;19917;-65
2021/04/30 04:31:57;;;;;;;;;;;;;;;18.00;47.90;100877.00;2089644;28;19916;-65
2021/04/30 04:32:57;;;;;;;;;;;;;;;17.99;47.75;100862.63;2089640;28;20399;-65
2021/04/30 04:33:57;;;;;;;;;;;;;;;18.01;47.64;100867.84;2089462;28;20367;-65
2021/04/30 04:34:58;;;;;;;;;;;;;;;18.00;47.84;100866.16;2089718;28;19983;-65
2021/04/30 04:35:58;;;;;;;;;;;;;;;18.00;47.69;100864.31;2089414;28;20418;-65
2021/04/30 04:36:58;;;;;;;;;;;;;;;18.00;47.88;100863.47;2089552;28;19923;-65
2021/04/30 04:37:59;;;;;;;;;;;;;;;17.99;48.03;100865.31;2089296;28;20007;-65
2021/04/30 04:38:59;;;;;;;;;;;;;;;17.99;47.72;100868.03;2089619;28;19936;-65
2021/04/30 04:39:59;;;;;;;;;;;;;;;17.99;47.81;100869.91;2089693;28;19916;-65
2021/04/30 04:41:00;;;;;;;;;;;;;;;17.99;47.75;100873.44;2089586;28;20354;-64
2021/04/30 04:42:02;;;;;;;;;;;;;;;17.98;47.96;100866.34;2097106;28;19916;-65
2021/04/30 04:43:02;;;;;;;;;;;;;;;17.99;47.80;100867.19;2096948;28;19916;-65
2021/04/30 04:44:03;;;;;;;;;;;;;;;17.99;47.94;100869.91;2084507;28;20279;-64
2021/04/30 04:45:04;;;;;;;;;;;;;;;17.99;47.79;100878.03;2089473;28;20382;-65
2021/04/30 04:46:04;;;;;;;;;;;;;;;17.98;47.82;100868.22;2089487;28;19921;-65
2021/04/30 04:47:04;;;;;;;;;;;;;;;17.99;48.18;100875.31;2089492;28;19944;-65
2021/04/30 04:48:05;;;;;;;;;;;;;;;17.99;47.89;100878.03;2089514;28;20290;-65
2021/04/30 04:49:05;;;;;;;;;;;;;;;17.98;47.72;100877.19;2089331;28;19912;-65
2021/04/30 04:50:06;;;;;;;;;;;;;;;17.98;48.26;100879.06;2089596;28;19913;-65
2021/04/30 04:51:06;;;;;;;;;;;;;;;17.97;48.50;100880.09;2089555;28;19909;-64
2021/04/30 04:52:06;;;;;;;;;;;;;;;17.98;48.80;100874.47;2089435;28;20035;-65
2021/04/30 04:53:07;;;;;;;;;;;;;;;17.98;48.74;100877.19;2089233;28;19909;-65
2021/04/30 04:54:07;;;;;;;;;;;;;;;17.99;48.38;100878.03;2089509;28;20294;-65
2021/04/30 04:55:10;;;;;;;;;;;;;;;17.98;48.12;100873.63;2089567;28;19923;-65
2021/04/30 04:56:11;;;;;;;;;;;;;;;17.95;48.26;100880.28;2088827;28;20027;-65
2021/04/30 04:57:11;;;;;;;;;;;;;;;17.95;48.26;100883.00;2088982;28;19913;-65
2021/04/30 04:58:11;;;;;;;;;;;;;;;17.95;48.22;100879.44;2089541;28;20372;-65
2021/04/30 04:59:11;;;;;;;;;;;;;;;17.95;48.11;100880.28;2089531;28;19913;-65
2021/04/30 05:00:12;;;;;;;;;;;;;;;17.95;48.01;100883.00;2089199;28;19913;-65
2021/04/30 05:01:12;;;;;;;;;;;;;;;17.95;47.91;100880.28;2089496;28;19970;-65
2021/04/30 05:02:13;;;;;;;;;;;;;;;17.95;47.91;100885.72;2089547;28;19955;-65
2021/04/30 05:03:13;;;;;;;;;;;;;;;17.95;48.15;100880.28;2089595;28;19935;-65
2021/04/30 05:04:13;;;;;;;;;;;;;;;17.96;47.97;100894.69;2089254;28;19978;-65
2021/04/30 05:05:14;;;;;;;;;;;;;;;17.95;48.25;100891.13;2089530;28;19982;-65
2021/04/30 05:06:14;;;;;;;;;;;;;;;17.94;47.95;100892.16;2089535;28;19917;-64
2021/04/30 05:07:15;;;;;;;;;;;;;;;17.94;48.20;100894.84;2089483;28;19956;-65
2021/04/30 05:08:15;;;;;;;;;;;;;;;17.94;48.43;100894.84;2089162;28;19920;-64
2021/04/30 05:09:15;;;;;;;;;;;;;;;17.95;48.47;100898.41;2089418;28;19912;-64
2021/04/30 05:10:18;;;;;;;;;;;;;;;17.94;48.48;100896.72;2089484;28;20651;-65
2021/04/30 05:11:19;;;;;;;;;;;;;;;17.95;48.54;100895.69;2089532;28;19917;-65